createdAt,value
2019-06-15T00:00:23.157Z,6.40
2019-06-15T00:01:23.128Z,6.20
2019-06-15T00:02:23.104Z,6.30
2019-06-15T00:03:23.093Z,6.40
2019-06-15T00:04:23.113Z,6.10
2019-06-15T00:05:23.097Z,6.30
2019-06-15T00:06:23.084Z,6.50
2019-06-15T00:07:23.076Z,6.20
2019-06-15T00:08:23.040Z,6.80
2019-06-15T00:09:23.629Z,6.30
2019-06-15T00:10:23.184Z,6.50
2019-06-15T00:11:23.010Z,6.40
2019-06-15T00:12:23.007Z,6.40
2019-06-15T00:13:23.010Z,6.40
2019-06-15T00:14:22.977Z,6.50
2019-06-15T00:15:23.032Z,6.60
2019-06-15T00:16:23.166Z,6.20
2019-06-15T00:17:22.955Z,6.50
2019-06-15T00:18:22.944Z,6.20
2019-06-15T00:19:22.978Z,6.90
2019-06-15T00:20:22.915Z,6.20
2019-06-15T00:21:22.953Z,7.10
2019-06-15T00:22:22.894Z,6.70
2019-06-15T00:23:22.888Z,6.40
2019-06-15T00:24:34.619Z,6.70
2019-06-15T00:25:22.896Z,6.50
2019-06-15T00:26:22.848Z,6.60
2019-06-15T00:27:22.853Z,6.50
2019-06-15T00:28:22.852Z,6.60
2019-06-15T00:29:22.820Z,6.80
2019-06-15T00:30:22.808Z,7.00
2019-06-15T00:31:22.792Z,6.60
2019-06-15T00:32:22.874Z,6.80
2019-06-15T00:33:22.771Z,6.50
2019-06-15T00:34:22.770Z,6.80
2019-06-15T00:35:22.753Z,6.50
2019-06-15T00:36:22.751Z,6.90
2019-06-15T00:37:22.773Z,6.70
2019-06-15T00:38:22.739Z,6.60
2019-06-15T00:39:22.708Z,7.00
2019-06-15T00:40:22.712Z,6.50
2019-06-15T00:41:22.694Z,7.00
2019-06-15T00:42:22.690Z,6.60
2019-06-15T00:43:22.725Z,7.00
2019-06-15T00:44:22.664Z,7.10
2019-06-15T00:45:22.639Z,7.30
2019-06-15T00:46:22.628Z,6.90
2019-06-15T00:47:22.629Z,6.80
2019-06-15T00:48:22.666Z,7.70
2019-06-15T00:49:22.601Z,7.40
2019-06-15T00:50:22.604Z,7.40
2019-06-15T00:51:22.578Z,7.10
2019-06-15T00:52:22.564Z,7.80
2019-06-15T00:53:22.600Z,7.60
2019-06-15T00:54:22.542Z,7.50
2019-06-15T00:55:22.534Z,7.50
2019-06-15T00:56:22.541Z,8.00
2019-06-15T00:57:22.519Z,7.60
2019-06-15T00:58:22.503Z,7.50
2019-06-15T00:59:22.510Z,7.70
2019-06-15T01:00:22.476Z,7.60
2019-06-15T01:01:22.466Z,8.00
2019-06-15T01:02:22.471Z,7.80
2019-06-15T01:03:22.454Z,7.60
2019-06-15T01:04:22.476Z,7.60
2019-06-15T01:05:22.442Z,7.70
2019-06-15T01:06:22.414Z,7.80
2019-06-15T01:07:22.400Z,7.50
2019-06-15T01:08:22.415Z,7.90
2019-06-15T01:09:22.424Z,7.50
2019-06-15T01:10:22.373Z,7.70
2019-06-15T01:11:22.369Z,7.60
2019-06-15T01:12:22.348Z,8.00
2019-06-15T01:13:22.335Z,8.00
2019-06-15T01:14:22.333Z,7.70
2019-06-15T01:15:22.339Z,7.50
2019-06-15T01:16:22.318Z,8.60
2019-06-15T01:17:22.316Z,8.70
2019-06-15T01:18:22.280Z,8.20
2019-06-15T01:19:22.271Z,8.20
2019-06-15T01:20:22.344Z,8.90
2019-06-15T01:21:22.252Z,8.10
2019-06-15T01:22:22.254Z,8.60
2019-06-15T01:23:22.244Z,9.30
2019-06-15T01:24:22.224Z,9.30
2019-06-15T01:25:22.225Z,9.20
2019-06-15T01:26:22.650Z,8.90
2019-06-15T01:27:22.184Z,9.40
2019-06-15T01:28:22.189Z,9.60
2019-06-15T01:29:22.161Z,9.70
2019-06-15T01:30:22.151Z,9.60
2019-06-15T01:31:22.208Z,10.10
2019-06-15T01:32:22.160Z,10.10
2019-06-15T01:33:22.120Z,9.70
2019-06-15T01:34:22.118Z,10.20
2019-06-15T01:35:22.097Z,10.20
2019-06-15T01:36:22.141Z,9.90
2019-06-15T01:37:22.079Z,9.80
2019-06-15T01:38:22.088Z,9.70
2019-06-15T01:39:22.060Z,10.20
2019-06-15T01:40:22.058Z,10.50
2019-06-15T01:41:22.033Z,9.90
2019-06-15T01:42:22.039Z,10.30
2019-06-15T01:43:22.011Z,10.10
2019-06-15T01:44:22.033Z,9.80
2019-06-15T01:45:21.997Z,10.70
2019-06-15T01:46:21.990Z,10.20
2019-06-15T01:47:22.016Z,10.50
2019-06-15T01:48:21.960Z,10.80
2019-06-15T01:49:21.948Z,10.60
2019-06-15T01:50:21.954Z,10.40
2019-06-15T01:51:21.932Z,10.50
2019-06-15T01:52:21.930Z,10.80
2019-06-15T01:53:21.949Z,10.50
2019-06-15T01:54:21.891Z,11.20
2019-06-15T01:55:21.884Z,11.60
2019-06-15T01:56:21.892Z,11.60
2019-06-15T01:57:21.870Z,11.20
2019-06-15T01:58:21.902Z,11.40
2019-06-15T01:59:21.836Z,11.60
2019-06-15T02:00:21.825Z,11.80
2019-06-15T02:01:22.619Z,11.70
2019-06-15T02:02:21.807Z,11.40
2019-06-15T02:03:21.829Z,11.60
2019-06-15T02:04:21.814Z,11.50
2019-06-15T02:05:21.774Z,12.00
2019-06-15T02:06:21.761Z,12.30
2019-06-15T02:07:21.767Z,11.60
2019-06-15T02:08:21.746Z,11.70
2019-06-15T02:09:21.823Z,11.40
2019-06-15T02:10:21.717Z,11.80
2019-06-15T02:11:21.712Z,12.70
2019-06-15T02:12:21.700Z,11.50
2019-06-15T02:13:21.702Z,11.60
2019-06-15T02:14:21.684Z,11.90
2019-06-15T02:15:21.737Z,12.00
2019-06-15T02:16:21.657Z,12.30
2019-06-15T02:17:21.640Z,11.60
2019-06-15T02:18:21.651Z,11.70
2019-06-15T02:19:21.621Z,12.50
2019-06-15T02:20:21.660Z,11.90
2019-06-15T02:21:21.643Z,11.30
2019-06-15T02:22:21.589Z,11.70
2019-06-15T02:23:21.576Z,11.80
2019-06-15T02:24:21.573Z,11.60
2019-06-15T02:25:34.865Z,11.80
2019-06-15T02:26:21.568Z,11.80
2019-06-15T02:27:21.566Z,11.80
2019-06-15T02:28:21.521Z,12.10
2019-06-15T02:29:21.515Z,11.90
2019-06-15T02:30:21.517Z,11.60
2019-06-15T02:31:21.532Z,12.00
2019-06-15T02:32:21.493Z,11.70
2019-06-15T02:33:21.504Z,12.00
2019-06-15T02:34:21.455Z,11.70
2019-06-15T02:35:21.446Z,11.70
2019-06-15T02:36:21.435Z,11.80
2019-06-15T02:37:21.469Z,12.10
2019-06-15T02:38:21.437Z,11.80
2019-06-15T02:39:21.441Z,12.00
2019-06-15T02:40:21.392Z,12.10
2019-06-15T02:41:21.381Z,11.30
2019-06-15T02:42:21.413Z,11.50
2019-06-15T02:43:21.368Z,11.70
2019-06-15T02:44:21.365Z,11.60
2019-06-15T02:45:21.387Z,11.40
2019-06-15T02:46:21.326Z,11.30
2019-06-15T02:47:21.322Z,11.50
2019-06-15T02:48:21.333Z,11.70
2019-06-15T02:49:21.326Z,11.50
2019-06-15T02:50:21.283Z,11.10
2019-06-15T02:51:21.295Z,11.00
2019-06-15T02:52:21.263Z,11.60
2019-06-15T02:53:21.293Z,11.40
2019-06-15T02:54:21.239Z,11.60
2019-06-15T02:55:21.237Z,11.60
2019-06-15T02:56:21.233Z,12.10
2019-06-15T02:57:21.226Z,11.60
2019-06-15T02:58:21.199Z,11.80
2019-06-15T02:59:21.208Z,11.40
2019-06-15T03:00:21.179Z,11.10
2019-06-15T03:01:21.173Z,11.30
2019-06-15T03:02:21.152Z,11.60
2019-06-15T03:03:21.164Z,11.40
2019-06-15T03:04:21.194Z,11.20
2019-06-15T03:05:21.122Z,11.30
2019-06-15T03:06:21.119Z,11.80
2019-06-15T03:07:21.110Z,11.40
2019-06-15T03:08:21.090Z,11.40
2019-06-15T03:09:21.138Z,11.40
2019-06-15T03:10:21.095Z,11.40
2019-06-15T03:11:21.054Z,11.50
2019-06-15T03:12:21.054Z,11.40
2019-06-15T03:13:21.063Z,11.40
2019-06-15T03:14:21.029Z,11.60
2019-06-15T03:15:21.090Z,11.30
2019-06-15T03:16:21.010Z,11.50
2019-06-15T03:17:20.990Z,11.80
2019-06-15T03:18:20.993Z,11.70
2019-06-15T03:19:20.967Z,11.70
2019-06-15T03:20:20.965Z,11.60
2019-06-15T03:21:20.980Z,11.40
2019-06-15T03:22:20.956Z,11.30
2019-06-15T03:23:20.928Z,11.60
2019-06-15T03:24:20.927Z,12.10
2019-06-15T03:25:20.902Z,11.50
2019-06-15T03:26:20.911Z,11.30
2019-06-15T03:27:20.920Z,11.70
2019-06-15T03:28:20.880Z,11.50
2019-06-15T03:29:20.861Z,11.20
2019-06-15T03:30:20.859Z,11.60
2019-06-15T03:31:20.881Z,11.40
2019-06-15T03:32:20.829Z,11.80
2019-06-15T03:33:20.836Z,11.70
2019-06-15T03:34:20.805Z,11.60
2019-06-15T03:35:20.803Z,12.10
2019-06-15T03:36:20.795Z,12.00
2019-06-15T03:37:20.805Z,11.50
2019-06-15T03:38:20.812Z,11.60
2019-06-15T03:39:20.751Z,11.80
2019-06-15T03:40:20.743Z,12.20
2019-06-15T03:41:20.747Z,11.30
2019-06-15T03:42:20.775Z,11.70
2019-06-15T03:43:20.744Z,12.20
2019-06-15T03:44:20.697Z,12.10
2019-06-15T03:45:20.761Z,12.20
2019-06-15T03:46:20.673Z,11.70
2019-06-15T03:47:20.676Z,12.20
2019-06-15T03:48:20.682Z,11.80
2019-06-15T03:49:20.657Z,11.90
2019-06-15T03:50:20.690Z,11.60
2019-06-15T03:51:20.633Z,11.90
2019-06-15T03:52:20.608Z,12.20
2019-06-15T03:53:20.703Z,11.80
2019-06-15T03:54:20.586Z,12.00
2019-06-15T03:55:20.576Z,12.40
2019-06-15T03:56:22.211Z,12.30
2019-06-15T03:57:20.590Z,12.30
2019-06-15T03:58:20.574Z,11.90
2019-06-15T03:59:20.541Z,12.00
2019-06-15T04:00:20.520Z,12.10
2019-06-15T04:01:20.554Z,12.30
2019-06-15T04:02:20.521Z,11.90
2019-06-15T04:03:20.507Z,12.40
2019-06-15T04:04:20.483Z,12.40
2019-06-15T04:05:20.484Z,12.40
2019-06-15T04:06:20.502Z,12.10
2019-06-15T04:07:20.445Z,12.10
2019-06-15T04:08:20.454Z,12.10
2019-06-15T04:09:20.423Z,11.60
2019-06-15T04:10:20.422Z,12.60
2019-06-15T04:11:20.463Z,12.20
2019-06-15T04:12:20.389Z,12.10
2019-06-15T04:13:20.380Z,12.10
2019-06-15T04:14:20.377Z,12.80
2019-06-15T04:15:20.380Z,12.30
2019-06-15T04:16:20.362Z,12.60
2019-06-15T04:17:20.363Z,12.20
2019-06-15T04:18:20.326Z,12.50
2019-06-15T04:19:20.314Z,12.80
2019-06-15T04:20:20.319Z,13.20
2019-06-15T04:21:20.318Z,12.50
2019-06-15T04:22:20.337Z,12.20
2019-06-15T04:23:20.271Z,12.40
2019-06-15T04:24:20.261Z,12.60
2019-06-15T04:25:20.249Z,12.90
2019-06-15T04:26:20.258Z,13.10
2019-06-15T04:27:20.284Z,12.20
2019-06-15T04:28:20.239Z,12.80
2019-06-15T04:29:20.206Z,12.60
2019-06-15T04:30:20.196Z,12.50
2019-06-15T04:31:20.184Z,12.50
2019-06-15T04:32:20.202Z,12.80
2019-06-15T04:33:20.241Z,12.40
2019-06-15T04:34:20.169Z,13.00
2019-06-15T04:35:20.140Z,12.40
2019-06-15T04:36:20.128Z,12.60
2019-06-15T04:37:20.120Z,12.80
2019-06-15T04:38:20.116Z,13.00
2019-06-15T04:39:20.143Z,12.90
2019-06-15T04:40:20.085Z,12.90
2019-06-15T04:41:20.082Z,12.40
2019-06-15T04:42:20.068Z,12.60
2019-06-15T04:43:20.062Z,12.80
2019-06-15T04:44:20.086Z,12.70
2019-06-15T04:45:20.036Z,13.20
2019-06-15T04:46:20.055Z,13.40
2019-06-15T04:47:20.020Z,13.10
2019-06-15T04:48:20.008Z,13.10
2019-06-15T04:49:20.004Z,13.00
2019-06-15T04:50:20.014Z,13.30
2019-06-15T04:51:19.974Z,12.90
2019-06-15T04:52:19.985Z,13.30
2019-06-15T04:53:19.944Z,13.00
2019-06-15T04:54:19.933Z,13.80
2019-06-15T04:55:19.966Z,13.30
2019-06-15T04:56:19.916Z,13.40
2019-06-15T04:57:19.918Z,13.10
2019-06-15T04:58:19.926Z,12.90
2019-06-15T04:59:19.883Z,13.30
2019-06-15T05:00:19.907Z,13.30
2019-06-15T05:01:19.882Z,13.20
2019-06-15T05:02:19.867Z,12.90
2019-06-15T05:03:19.856Z,13.50
2019-06-15T05:04:19.867Z,13.70
2019-06-15T05:05:19.816Z,14.00
2019-06-15T05:06:19.872Z,13.20
2019-06-15T05:07:19.791Z,13.50
2019-06-15T05:08:19.795Z,13.80
2019-06-15T05:09:19.787Z,13.70
2019-06-15T05:10:19.760Z,13.90
2019-06-15T05:11:19.773Z,14.00
2019-06-15T05:12:19.754Z,13.50
2019-06-15T05:13:19.727Z,13.70
2019-06-15T05:14:19.725Z,13.20
2019-06-15T05:15:19.711Z,13.80
2019-06-15T05:16:19.694Z,13.30
2019-06-15T05:17:19.774Z,14.20
2019-06-15T05:18:19.690Z,13.60
2019-06-15T05:19:19.664Z,14.00
2019-06-15T05:20:19.665Z,13.90
2019-06-15T05:21:19.640Z,14.10
2019-06-15T05:22:19.684Z,14.00
2019-06-15T05:23:19.651Z,13.90
2019-06-15T05:24:19.620Z,14.50
2019-06-15T05:25:19.603Z,13.70
2019-06-15T05:26:19.608Z,14.30
2019-06-15T05:27:19.573Z,14.60
2019-06-15T05:28:19.582Z,13.80
2019-06-15T05:29:19.570Z,14.10
2019-06-15T05:30:19.556Z,13.70
2019-06-15T05:31:19.542Z,13.90
2019-06-15T05:32:19.534Z,14.30
2019-06-15T05:33:19.559Z,14.00
2019-06-15T05:34:19.499Z,14.50
2019-06-15T05:35:19.512Z,14.10
2019-06-15T05:36:19.491Z,14.10
2019-06-15T05:37:19.505Z,14.10
2019-06-15T05:38:19.472Z,14.20
2019-06-15T05:39:19.481Z,14.10
2019-06-15T05:40:19.432Z,14.30
2019-06-15T05:41:19.450Z,13.60
2019-06-15T05:42:19.410Z,14.00
2019-06-15T05:43:19.414Z,14.00
2019-06-15T05:44:19.444Z,13.90
2019-06-15T05:45:19.459Z,14.20
2019-06-15T05:46:19.368Z,14.80
2019-06-15T05:47:19.367Z,14.70
2019-06-15T05:48:19.370Z,14.60
2019-06-15T05:49:19.391Z,14.90
2019-06-15T05:50:19.324Z,14.30
2019-06-15T05:51:19.317Z,14.50
2019-06-15T05:52:19.302Z,14.30
2019-06-15T05:53:19.326Z,14.80
2019-06-15T05:54:19.309Z,14.40
2019-06-15T05:55:19.342Z,14.50
2019-06-15T05:56:19.263Z,14.70
2019-06-15T05:57:21.890Z,14.20
2019-06-15T05:58:19.240Z,14.50
2019-06-15T05:59:19.228Z,14.30
2019-06-15T06:00:19.282Z,14.40
2019-06-15T06:01:19.220Z,14.30
2019-06-15T06:02:21.681Z,14.80
2019-06-15T06:03:19.185Z,14.10
2019-06-15T06:04:19.180Z,14.60
2019-06-15T06:05:19.212Z,14.70
2019-06-15T06:06:19.187Z,14.50
2019-06-15T06:07:19.158Z,14.10
2019-06-15T06:08:19.163Z,14.00
2019-06-15T06:09:19.121Z,14.50
2019-06-15T06:10:19.541Z,14.60
2019-06-15T06:11:19.105Z,14.50
2019-06-15T06:12:19.115Z,14.90
2019-06-15T06:13:19.075Z,14.40
2019-06-15T06:14:19.066Z,14.30
2019-06-15T06:15:19.073Z,14.60
2019-06-15T06:16:19.063Z,14.70
2019-06-15T06:17:19.031Z,14.90
2019-06-15T06:18:19.061Z,14.80
2019-06-15T06:19:19.010Z,15.20
2019-06-15T06:20:19.003Z,14.70
2019-06-15T06:21:19.060Z,14.20
2019-06-15T06:22:18.993Z,14.90
2019-06-15T06:23:18.971Z,15.10
2019-06-15T06:24:18.970Z,15.10
2019-06-15T06:25:19.045Z,14.80
2019-06-15T06:26:18.938Z,14.40
2019-06-15T06:27:18.959Z,14.90
2019-06-15T06:28:18.935Z,14.30
2019-06-15T06:29:18.909Z,14.80
2019-06-15T06:30:18.911Z,15.50
2019-06-15T06:31:18.945Z,14.90
2019-06-15T06:32:18.929Z,14.80
2019-06-15T06:33:18.857Z,14.70
2019-06-15T06:34:18.854Z,15.60
2019-06-15T06:35:18.850Z,15.20
2019-06-15T06:36:18.843Z,15.30
2019-06-15T06:37:18.884Z,15.70
2019-06-15T06:38:18.823Z,15.30
2019-06-15T06:39:18.797Z,15.20
2019-06-15T06:40:18.792Z,15.60
2019-06-15T06:41:18.787Z,15.10
2019-06-15T06:42:18.781Z,15.20
2019-06-15T06:43:18.813Z,15.10
2019-06-15T06:44:18.745Z,15.30
2019-06-15T06:45:18.737Z,15.40
2019-06-15T06:46:18.722Z,15.60
2019-06-15T06:47:18.721Z,15.30
2019-06-15T06:48:18.696Z,15.00
2019-06-15T06:49:18.759Z,15.50
2019-06-15T06:50:18.677Z,15.10
2019-06-15T06:51:18.673Z,15.10
2019-06-15T06:52:18.693Z,14.70
2019-06-15T06:53:18.656Z,14.80
2019-06-15T06:54:18.675Z,14.70
2019-06-15T06:55:18.701Z,14.80
2019-06-15T06:56:18.669Z,14.60
2019-06-15T06:57:18.634Z,15.40
2019-06-15T06:58:18.596Z,14.90
2019-06-15T06:59:18.636Z,15.30
2019-06-15T07:00:18.634Z,14.90
2019-06-15T07:01:18.559Z,14.60
2019-06-15T07:02:18.549Z,14.30
2019-06-15T07:03:18.800Z,14.70
2019-06-15T07:04:18.529Z,14.50
2019-06-15T07:05:18.537Z,14.30
2019-06-15T07:06:18.548Z,14.80
2019-06-15T07:07:18.492Z,14.60
2019-06-15T07:08:18.481Z,14.70
2019-06-15T07:09:18.472Z,14.70
2019-06-15T07:10:18.502Z,14.00
2019-06-15T07:11:18.463Z,14.70
2019-06-15T07:12:18.476Z,14.50
2019-06-15T07:13:18.443Z,14.60
2019-06-15T07:14:18.424Z,14.20
2019-06-15T07:15:18.408Z,13.90
2019-06-15T07:16:18.415Z,14.00
2019-06-15T07:17:18.411Z,14.10
2019-06-15T07:18:18.417Z,14.50
2019-06-15T07:19:18.370Z,14.10
2019-06-15T07:20:18.360Z,14.20
2019-06-15T07:21:18.395Z,14.60
2019-06-15T07:22:18.346Z,14.10
2019-06-15T07:23:18.323Z,14.00
2019-06-15T07:24:18.327Z,14.30
2019-06-15T07:25:18.307Z,13.60
2019-06-15T07:26:18.302Z,13.60
2019-06-15T07:27:18.313Z,13.60
2019-06-15T07:28:18.277Z,13.30
2019-06-15T07:29:18.259Z,14.00
2019-06-15T07:30:18.308Z,13.60
2019-06-15T07:31:18.237Z,13.80
2019-06-15T07:32:18.243Z,14.20
2019-06-15T07:33:18.216Z,13.30
2019-06-15T07:34:18.216Z,13.40
2019-06-15T07:35:18.276Z,13.10
2019-06-15T07:36:18.203Z,13.00
2019-06-15T07:37:18.290Z,13.70
2019-06-15T07:38:18.173Z,12.90
2019-06-15T07:39:18.155Z,12.90
2019-06-15T07:40:18.151Z,13.40
2019-06-15T07:41:18.129Z,12.60
2019-06-15T07:42:18.192Z,13.10
2019-06-15T07:43:18.206Z,12.70
2019-06-15T07:44:18.112Z,12.50
2019-06-15T07:45:18.093Z,12.30
2019-06-15T07:46:18.092Z,12.20
2019-06-15T07:47:18.062Z,12.20
2019-06-15T07:48:18.128Z,11.70
2019-06-15T07:49:18.042Z,12.50
2019-06-15T07:50:18.035Z,12.40
2019-06-15T07:51:18.030Z,11.80
2019-06-15T07:52:18.047Z,12.40
2019-06-15T07:53:18.001Z,11.80
2019-06-15T07:54:18.068Z,11.70
2019-06-15T07:55:17.981Z,11.80
2019-06-15T07:56:17.967Z,12.00
2019-06-15T07:57:17.967Z,11.50
2019-06-15T07:58:24.639Z,11.90
2019-06-15T07:59:19.014Z,11.90
2019-06-15T08:00:17.926Z,11.80
2019-06-15T08:01:17.953Z,11.70
2019-06-15T08:02:17.911Z,12.20
2019-06-15T08:03:17.907Z,12.00
2019-06-15T08:04:17.886Z,11.60
2019-06-15T08:05:18.034Z,12.00
2019-06-15T08:06:17.915Z,11.80
2019-06-15T08:07:17.931Z,11.80
2019-06-15T08:08:17.839Z,11.30
2019-06-15T08:09:17.831Z,11.30
2019-06-15T08:10:17.831Z,11.90
2019-06-15T08:11:17.804Z,11.80
2019-06-15T08:12:17.815Z,11.60
2019-06-15T08:13:17.843Z,11.40
2019-06-15T08:14:17.775Z,11.00
2019-06-15T08:15:17.774Z,10.40
2019-06-15T08:16:17.755Z,10.20
2019-06-15T08:17:17.798Z,9.20
2019-06-15T08:18:17.731Z,9.40
2019-06-15T08:19:17.779Z,9.60
2019-06-15T08:20:17.713Z,9.70
2019-06-15T08:21:17.708Z,9.50
2019-06-15T08:22:17.690Z,9.50
2019-06-15T08:23:17.698Z,10.20
2019-06-15T08:24:17.684Z,10.00
2019-06-15T08:25:17.680Z,9.40
2019-06-15T08:26:17.653Z,9.50
2019-06-15T08:27:17.648Z,9.70
2019-06-15T08:28:17.721Z,10.00
2019-06-15T08:29:17.612Z,9.40
2019-06-15T08:30:17.675Z,9.00
2019-06-15T08:31:17.591Z,8.80
2019-06-15T08:32:17.660Z,8.80
2019-06-15T08:33:17.634Z,9.40
2019-06-15T08:34:17.566Z,9.20
2019-06-15T08:35:17.584Z,8.80
2019-06-15T08:36:17.613Z,9.20
2019-06-15T08:37:17.531Z,9.60
2019-06-15T08:38:17.526Z,9.60
2019-06-15T08:39:17.525Z,9.50
2019-06-15T08:40:17.513Z,9.40
2019-06-15T08:41:17.513Z,9.10
2019-06-15T08:42:17.502Z,9.40
2019-06-15T08:43:17.465Z,8.70
2019-06-15T08:44:17.468Z,8.90
2019-06-15T08:45:17.443Z,8.90
2019-06-15T08:46:17.482Z,8.80
2019-06-15T08:47:17.421Z,8.20
2019-06-15T08:48:17.441Z,8.90
2019-06-15T08:49:17.399Z,8.90
2019-06-15T08:50:17.397Z,8.60
2019-06-15T08:51:17.381Z,8.60
2019-06-15T08:52:17.387Z,8.00
2019-06-15T08:53:17.359Z,8.40
2019-06-15T08:54:17.378Z,8.10
2019-06-15T08:55:17.337Z,8.10
2019-06-15T08:56:17.337Z,8.50
2019-06-15T08:57:17.359Z,8.20
2019-06-15T08:58:17.306Z,8.20
2019-06-15T08:59:17.294Z,8.80
2019-06-15T09:00:17.345Z,8.80
2019-06-15T09:01:17.279Z,7.70
2019-06-15T09:02:17.296Z,7.90
2019-06-15T09:03:17.251Z,8.10
2019-06-15T09:04:17.242Z,8.50
2019-06-15T09:05:17.269Z,8.30
2019-06-15T09:06:17.267Z,7.40
2019-06-15T09:07:17.255Z,7.60
2019-06-15T09:08:17.211Z,7.50
2019-06-15T09:09:17.188Z,7.10
2019-06-15T09:10:17.177Z,6.80
2019-06-15T09:11:17.168Z,6.80
2019-06-15T09:12:17.217Z,6.80
2019-06-15T09:13:17.167Z,7.10
2019-06-15T09:14:17.152Z,7.20
2019-06-15T09:15:17.125Z,7.10
2019-06-15T09:16:17.115Z,7.40
2019-06-15T09:17:17.104Z,7.30
2019-06-15T09:18:17.205Z,7.40
2019-06-15T09:19:17.093Z,7.00
2019-06-15T09:20:17.091Z,6.90
2019-06-15T09:21:17.070Z,7.20
2019-06-15T09:22:17.056Z,7.00
2019-06-15T09:23:17.074Z,6.90
2019-06-15T09:24:17.060Z,6.90
2019-06-15T09:25:17.096Z,6.60
2019-06-15T09:26:17.036Z,6.30
2019-06-15T09:27:17.005Z,6.20
2019-06-15T09:28:17.043Z,6.20
2019-06-15T09:29:17.907Z,5.60
2019-06-15T09:30:16.984Z,5.60
2019-06-15T09:31:16.992Z,4.90
2019-06-15T09:32:16.982Z,4.70
2019-06-15T09:33:16.937Z,4.60
2019-06-15T09:34:19.329Z,4.70
2019-06-15T09:35:16.930Z,4.30
2019-06-15T09:36:16.905Z,4.50
2019-06-15T09:37:16.980Z,4.40
2019-06-15T09:38:16.911Z,4.40
2019-06-15T09:39:17.025Z,4.30
2019-06-15T09:40:16.863Z,4.00
2019-06-15T09:41:16.861Z,4.50
2019-06-15T09:42:16.841Z,4.30
2019-06-15T09:43:16.915Z,4.10
2019-06-15T09:44:16.843Z,4.30
2019-06-15T09:45:16.814Z,4.70
2019-06-15T09:46:16.801Z,4.50
2019-06-15T09:47:16.795Z,4.80
2019-06-15T09:48:16.821Z,4.70
2019-06-15T09:49:16.795Z,4.50
2019-06-15T09:50:16.756Z,4.70
2019-06-15T09:51:16.746Z,5.00
2019-06-15T09:52:16.746Z,5.20
2019-06-15T09:53:16.739Z,4.80
2019-06-15T09:54:16.747Z,4.90
2019-06-15T09:55:16.764Z,5.00
2019-06-15T09:56:16.694Z,5.20
2019-06-15T09:57:16.683Z,5.20
2019-06-15T09:58:16.697Z,5.10
2019-06-15T09:59:25.684Z,5.40
2019-06-15T10:00:16.659Z,5.20
2019-06-15T10:01:16.676Z,5.10
2019-06-15T10:02:16.631Z,5.10
2019-06-15T10:03:16.617Z,5.10
2019-06-15T10:04:16.684Z,5.30
2019-06-15T10:05:16.624Z,5.60
2019-06-15T10:06:16.590Z,4.90
2019-06-15T10:07:16.603Z,5.80
2019-06-15T10:08:16.672Z,5.90
2019-06-15T10:09:16.559Z,5.40
2019-06-15T10:10:16.543Z,5.10
2019-06-15T10:11:16.556Z,5.50
2019-06-15T10:12:16.572Z,5.90
2019-06-15T10:13:16.609Z,5.70
2019-06-15T10:14:16.506Z,5.60
2019-06-15T10:15:16.491Z,5.50
2019-06-15T10:16:16.479Z,5.20
2019-06-15T10:17:16.470Z,5.40
2019-06-15T10:18:16.477Z,5.70
2019-06-15T10:19:16.494Z,5.70
2019-06-15T10:20:16.437Z,5.80
2019-06-15T10:21:16.427Z,5.00
2019-06-15T10:22:16.418Z,5.30
2019-06-15T10:23:16.445Z,5.20
2019-06-15T10:24:16.407Z,5.50
2019-06-15T10:25:16.482Z,5.40
2019-06-15T10:26:16.376Z,5.50
2019-06-15T10:27:16.363Z,4.90
2019-06-15T10:28:16.423Z,5.10
2019-06-15T10:29:16.345Z,5.30
2019-06-15T10:30:16.345Z,5.00
2019-06-15T10:31:16.371Z,5.20
2019-06-15T10:32:16.310Z,5.30
2019-06-15T10:33:16.319Z,5.00
2019-06-15T10:34:16.322Z,5.00
2019-06-15T10:35:16.277Z,5.20
2019-06-15T10:36:16.280Z,5.30
2019-06-15T10:37:16.288Z,5.10
2019-06-15T10:38:16.246Z,5.00
2019-06-15T10:39:16.289Z,4.90
2019-06-15T10:40:16.233Z,4.70
2019-06-15T10:41:16.229Z,5.10
2019-06-15T10:42:16.206Z,5.00
2019-06-15T10:43:16.284Z,5.00
2019-06-15T10:44:16.219Z,4.70
2019-06-15T10:45:16.190Z,4.80
2019-06-15T10:46:16.241Z,4.30
2019-06-15T10:47:16.149Z,4.50
2019-06-15T10:48:16.149Z,4.70
2019-06-15T10:49:16.131Z,4.30
2019-06-15T10:50:16.172Z,4.30
2019-06-15T10:51:16.124Z,4.00
2019-06-15T10:52:16.132Z,3.90
2019-06-15T10:53:16.088Z,3.80
2019-06-15T10:54:16.085Z,4.00
2019-06-15T10:55:16.068Z,3.80
2019-06-15T10:56:16.073Z,3.80
2019-06-15T10:57:16.091Z,3.90
2019-06-15T10:58:16.050Z,3.80
2019-06-15T10:59:16.026Z,3.70
2019-06-15T11:00:16.026Z,3.80
2019-06-15T11:01:16.044Z,3.90
2019-06-15T11:02:15.991Z,3.70
2019-06-15T11:03:16.047Z,3.70
2019-06-15T11:04:15.987Z,3.70
2019-06-15T11:05:15.966Z,3.70
2019-06-15T11:06:15.967Z,3.80
2019-06-15T11:07:15.969Z,3.80
2019-06-15T11:08:15.928Z,4.30
2019-06-15T11:09:15.983Z,4.00
2019-06-15T11:10:15.906Z,4.10
2019-06-15T11:11:15.902Z,4.20
2019-06-15T11:12:15.938Z,4.30
2019-06-15T11:13:15.873Z,4.40
2019-06-15T11:14:15.863Z,4.70
2019-06-15T11:15:15.875Z,4.70
2019-06-15T11:16:15.842Z,4.80
2019-06-15T11:17:15.841Z,4.80
2019-06-15T11:18:15.868Z,5.00
2019-06-15T11:19:15.838Z,4.70
2019-06-15T11:20:15.840Z,4.60
2019-06-15T11:21:15.869Z,4.40
2019-06-15T11:22:15.780Z,4.30
2019-06-15T11:23:15.813Z,3.90
2019-06-15T11:24:15.772Z,4.10
2019-06-15T11:25:15.749Z,4.30
2019-06-15T11:26:15.735Z,3.50
2019-06-15T11:27:15.797Z,4.00
2019-06-15T11:28:15.717Z,3.60
2019-06-15T11:29:15.722Z,3.40
2019-06-15T11:30:15.725Z,3.60
2019-06-15T11:31:15.681Z,3.50
2019-06-15T11:32:15.699Z,3.40
2019-06-15T11:33:15.683Z,3.50
2019-06-15T11:34:15.710Z,3.40
2019-06-15T11:35:15.654Z,3.40
2019-06-15T11:36:15.631Z,3.50
2019-06-15T11:37:15.619Z,3.10
2019-06-15T11:38:15.607Z,3.40
2019-06-15T11:39:15.699Z,3.20
2019-06-15T11:40:15.592Z,3.30
2019-06-15T11:41:15.583Z,3.40
2019-06-15T11:42:15.593Z,3.00
2019-06-15T11:43:15.555Z,3.10
2019-06-15T11:44:15.549Z,2.90
2019-06-15T11:45:16.303Z,2.80
2019-06-15T11:46:15.526Z,3.00
2019-06-15T11:47:15.524Z,2.80
2019-06-15T11:48:15.506Z,2.80
2019-06-15T11:49:15.492Z,3.00
2019-06-15T11:50:15.538Z,2.60
2019-06-15T11:51:15.484Z,2.80
2019-06-15T11:52:15.826Z,2.90
2019-06-15T11:53:17.313Z,2.90
2019-06-15T11:54:15.440Z,2.80
2019-06-15T11:55:15.588Z,2.80
2019-06-15T11:56:15.417Z,2.60
2019-06-15T11:57:15.451Z,2.50
2019-06-15T11:58:15.433Z,2.90
2019-06-15T11:59:15.435Z,2.60
2019-06-15T12:00:30.450Z,2.80
2019-06-15T12:01:18.900Z,2.70
2019-06-15T12:02:15.357Z,2.50
2019-06-15T12:03:15.366Z,2.90
2019-06-15T12:04:15.338Z,2.90
2019-06-15T12:05:15.369Z,2.80
2019-06-15T12:06:15.381Z,2.70
2019-06-15T12:07:15.303Z,2.60
2019-06-15T12:08:15.290Z,2.60
2019-06-15T12:09:15.282Z,2.70
2019-06-15T12:10:15.278Z,2.40
2019-06-15T12:11:15.382Z,2.50
2019-06-15T12:12:15.250Z,2.50
2019-06-15T12:13:15.238Z,2.70
2019-06-15T12:14:15.236Z,2.50
2019-06-15T12:15:15.241Z,2.70
2019-06-15T12:16:15.225Z,2.40
2019-06-15T12:17:15.230Z,2.50
2019-06-15T12:18:15.189Z,2.50
2019-06-15T12:19:15.258Z,2.40
2019-06-15T12:20:15.384Z,2.50
2019-06-15T12:21:15.197Z,2.30
2019-06-15T12:22:15.169Z,2.30
2019-06-15T12:23:15.357Z,2.30
2019-06-15T12:24:15.121Z,2.70
2019-06-15T12:25:15.188Z,2.40
2019-06-15T12:26:15.104Z,2.40
2019-06-15T12:27:15.112Z,2.60
2019-06-15T12:28:15.089Z,2.40
2019-06-15T12:29:15.157Z,2.70
2019-06-15T12:30:15.061Z,2.30
2019-06-15T12:31:15.085Z,2.40
2019-06-15T12:32:15.054Z,2.30
2019-06-15T12:33:15.036Z,2.10
2019-06-15T12:34:15.027Z,2.20
2019-06-15T12:35:15.125Z,2.80
2019-06-15T12:36:19.149Z,2.40
2019-06-15T12:37:14.988Z,2.40
2019-06-15T12:38:14.983Z,2.40
2019-06-15T12:39:14.970Z,2.00
2019-06-15T12:40:14.983Z,2.30
2019-06-15T12:41:14.961Z,2.60
2019-06-15T12:42:15.138Z,2.30
2019-06-15T12:43:14.925Z,2.30
2019-06-15T12:44:14.950Z,2.40
2019-06-15T12:45:14.915Z,2.40
2019-06-15T12:46:14.911Z,2.30
2019-06-15T12:47:14.918Z,2.40
2019-06-15T12:48:14.869Z,2.70
2019-06-15T12:49:14.864Z,2.40
2019-06-15T12:50:14.896Z,2.40
2019-06-15T12:51:14.857Z,2.60
2019-06-15T12:52:14.839Z,2.70
2019-06-15T12:53:14.816Z,2.40
2019-06-15T12:54:14.806Z,2.30
2019-06-15T12:55:14.823Z,2.60
2019-06-15T12:56:14.806Z,2.70
2019-06-15T12:57:14.808Z,2.40
2019-06-15T12:58:14.787Z,2.50
2019-06-15T12:59:14.758Z,2.40
2019-06-15T13:00:14.746Z,2.50
2019-06-15T13:01:14.793Z,2.60
2019-06-15T13:02:14.742Z,2.20
2019-06-15T13:03:14.721Z,2.20
2019-06-15T13:04:14.712Z,2.10
2019-06-15T13:05:14.746Z,2.40